Time;durP1;ratioP1;P1;durP2;ratioP2;P2;SDS_P1;SDS_P2;PMS_P1;PMS_P2;Temp;Humidity;BMP_temperature;BMP_pressure;BME280_temperature;BME280_humidity;BME280_pressure;Samples;Min_cycle;Max_cycle;Signal;HPM_P1;HPM_P2
2021/04/10 00:00:06;;;;;;;;;;;;;;;21.67;33.01;101067.06;2207604;39;115491;-58
2021/04/10 00:01:40;;;;;;;;;;;;;;;21.66;32.73;101080.31;2209661;39;115874;-58
2021/04/10 00:03:11;;;;;;;;;;;;;;;21.68;33.13;101083.63;2213534;39;115423;-57
2021/04/10 00:04:42;;;;;;;;;;;;;;;21.65;32.87;101075.84;2201150;39;116426;-57
2021/04/10 00:06:14;;;;;;;;;;;;;;;21.66;33.13;101079.47;2203238;39;115693;-59
2021/04/10 00:07:45;;;;;;;;;;;;;;;21.65;33.27;101075.00;2210551;39;115393;-56
2021/04/10 00:09:16;;;;;;;;;;;;;;;21.65;32.97;101075.00;2214030;39;114535;-57
2021/04/10 00:10:47;;;;;;;;;;;;;;;21.64;33.09;101076.97;2207193;39;113733;-59
2021/04/10 00:12:19;;;;;;;;;;;;;;;21.63;33.22;101078.13;2209543;39;113689;-57
2021/04/10 00:13:50;;;;;;;;;;;;;;;21.63;33.31;101080.94;2211192;39;113985;-58
2021/04/10 00:15:22;;;;;;;;;;;;;;;21.64;33.16;101076.97;2209054;39;113945;-57
2021/04/10 00:16:53;;;;;;;;;;;;;;;21.62;33.31;101075.63;2212281;39;113843;-57
2021/04/10 00:18:25;;;;;;;;;;;;;;;21.61;33.19;101072.00;2209593;39;113836;-58
2021/04/10 00:19:56;;;;;;;;;;;;;;;21.61;33.46;101071.16;2208789;39;114263;-58
2021/04/10 00:21:27;;;;;;;;;;;;;;;21.59;33.65;101071.44;2202597;39;113909;-58
2021/04/10 00:22:58;;;;;;;;;;;;;;;21.60;33.80;101080.72;2206708;39;113778;-59
2021/04/10 00:24:29;;;;;;;;;;;;;;;21.58;33.66;101075.41;2212037;39;114105;-59
2021/04/10 00:26:01;;;;;;;;;;;;;;;21.59;33.99;101070.63;2211231;39;113865;-59
2021/04/10 00:27:32;;;;;;;;;;;;;;;21.58;33.79;101071.75;2204383;39;114462;-58
2021/04/10 00:29:03;;;;;;;;;;;;;;;21.58;34.08;101066.97;2203441;39;113775;-57
2021/04/10 00:30:34;;;;;;;;;;;;;;;21.58;34.01;101068.94;2210257;39;114039;-59
2021/04/10 00:32:06;;;;;;;;;;;;;;;21.57;33.93;101067.31;2206853;39;114798;-56
2021/04/10 00:33:38;;;;;;;;;;;;;;;21.56;33.83;101065.63;2211051;39;114713;-58
2021/04/10 00:35:10;;;;;;;;;;;;;;;21.58;34.11;101066.97;2205451;39;115879;-58
2021/04/10 00:36:41;;;;;;;;;;;;;;;21.57;34.15;101067.31;2206980;39;114943;-58
2021/04/10 00:38:12;;;;;;;;;;;;;;;21.53;34.11;101067.06;2206463;39;114703;-58
2021/04/10 00:39:43;;;;;;;;;;;;;;;21.54;34.39;101065.94;2208230;39;114973;-58
2021/04/10 00:41:14;;;;;;;;;;;;;;;21.51;34.40;101069.38;2210682;39;114698;-59
2021/04/10 00:42:45;;;;;;;;;;;;;;;21.52;34.19;101061.78;2213488;39;115306;-57
2021/04/10 00:44:17;;;;;;;;;;;;;;;21.51;34.31;101068.53;2209307;39;114856;-58
2021/04/10 00:45:48;;;;;;;;;;;;;;;21.48;34.67;101070.00;2209697;39;115908;-57
2021/04/10 00:47:19;;;;;;;;;;;;;;;21.48;34.29;101064.38;2210178;39;114729;-58
2021/04/10 00:48:50;;;;;;;;;;;;;;;21.49;34.46;101068.84;2211714;39;114794;-57
2021/04/10 00:50:21;;;;;;;;;;;;;;;21.48;34.48;101069.19;2212210;39;115122;-57
2021/04/10 00:51:53;;;;;;;;;;;;;;;21.47;34.42;101070.31;2211405;39;115539;-59
2021/04/10 00:53:25;;;;;;;;;;;;;;;21.46;34.73;101069.47;2210747;39;115562;-59
2021/04/10 00:54:56;;;;;;;;;;;;;;;21.44;34.74;101068.13;2212007;39;116003;-57
2021/04/10 00:56:28;;;;;;;;;;;;;;;21.44;34.60;101068.13;2205757;39;115553;-58
2021/04/10 00:57:59;;;;;;;;;;;;;;;21.42;34.85;101065.63;2212142;39;115438;-57
2021/04/10 00:59:31;;;;;;;;;;;;;;;21.41;34.67;101066.75;2214060;39;116185;-59
2021/04/10 01:01:03;;;;;;;;;;;;;;;21.40;35.03;101056.66;2212673;39;115940;-57
2021/04/10 01:02:34;;;;;;;;;;;;;;;21.41;34.68;101061.13;2209084;39;115948;-58
2021/04/10 01:04:06;;;;;;;;;;;;;;;21.40;34.98;101064.25;2206499;39;114775;-59
2021/04/10 01:05:37;;;;;;;;;;;;;;;21.38;34.91;101056.16;2211353;39;115470;-58
2021/04/10 01:07:09;;;;;;;;;;;;;;;21.38;34.83;101058.97;2212863;39;115572;-58
2021/04/10 01:08:40;;;;;;;;;;;;;;;21.36;34.55;101060.41;2200930;39;115004;-58
2021/04/10 01:10:11;;;;;;;;;;;;;;;21.35;34.81;101056.75;2208532;39;115939;-57
2021/04/10 01:11:52;;;;;;;;;;;;;;;21.34;34.70;101059.91;2210975;39;115670;-59
2021/04/10 01:13:26;;;;;;;;;;;;;;;21.32;34.67;101064.97;2211729;39;115949;-57
2021/04/10 01:15:07;;;;;;;;;;;;;;;21.32;34.85;101057.38;2209081;39;113984;-59
2021/04/10 01:16:43;;;;;;;;;;;;;;;21.30;34.88;101056.88;2213630;39;114096;-57
2021/04/10 01:18:14;;;;;;;;;;;;;;;21.28;35.03;101057.19;2216411;39;113694;-59
2021/04/10 01:19:46;;;;;;;;;;;;;;;21.27;34.73;101061.13;2212294;39;113894;-60
2021/04/10 01:21:26;;;;;;;;;;;;;;;21.26;35.45;101062.28;2214798;39;114427;-56
2021/04/10 01:23:07;;;;;;;;;;;;;;;21.24;35.43;101058.94;2212071;39;113969;-57
2021/04/10 01:24:41;;;;;;;;;;;;;;;21.25;35.38;101056.97;2208894;39;113729;-57
2021/04/10 01:26:21;;;;;;;;;;;;;;;21.27;35.66;101063.09;2214725;39;113756;-58
2021/04/10 01:28:02;;;;;;;;;;;;;;;21.26;35.20;101058.63;2210971;39;114208;-58
2021/04/10 01:29:40;;;;;;;;;;;;;;;21.26;35.49;101053.00;2210575;39;113750;-57
2021/04/10 01:31:15;;;;;;;;;;;;;;;21.24;35.63;101064.56;2207139;39;113794;-57
2021/04/10 01:32:56;;;;;;;;;;;;;;;21.24;35.58;101060.94;2211991;39;113665;-57
2021/04/10 01:34:34;;;;;;;;;;;;;;;21.22;35.32;101061.22;2209566;39;113912;-57
2021/04/10 01:36:05;;;;;;;;;;;;;;;21.21;35.29;101053.13;2210010;39;113787;-57
2021/04/10 01:37:40;;;;;;;;;;;;;;;21.22;35.54;101069.66;2212640;39;113719;-58
2021/04/10 01:39:12;;;;;;;;;;;;;;;21.22;35.15;101060.38;2210746;39;114572;-58
2021/04/10 01:40:44;;;;;;;;;;;;;;;21.20;35.55;101057.91;2209936;39;115949;-58
2021/04/10 01:42:18;;;;;;;;;;;;;;;21.19;35.31;101063.84;2204388;39;114858;-58
2021/04/10 01:43:51;;;;;;;;;;;;;;;21.18;35.34;101057.38;2201201;39;114940;-58
2021/04/10 01:45:22;;;;;;;;;;;;;;;21.19;35.38;101061.84;2200399;39;114232;-57
2021/04/10 01:46:55;;;;;;;;;;;;;;;21.18;35.67;101062.16;2200649;39;114836;-59
2021/04/10 01:48:27;;;;;;;;;;;;;;;21.17;35.52;101057.66;2209133;39;115842;-59
2021/04/10 01:50:01;;;;;;;;;;;;;;;21.17;35.67;101052.06;2209923;39;114762;-59
2021/04/10 01:51:34;;;;;;;;;;;;;;;21.15;35.44;101055.19;2213331;39;114869;-57
2021/04/10 01:53:06;;;;;;;;;;;;;;;21.16;35.84;101056.88;2210387;39;114757;-57
2021/04/10 01:54:38;;;;;;;;;;;;;;;21.14;35.78;101058.31;2212034;39;114928;-58
2021/04/10 01:56:10;;;;;;;;;;;;;;;21.12;35.78;101060.56;2203439;39;114726;-58
2021/04/10 01:57:41;;;;;;;;;;;;;;;21.10;35.32;101052.44;2206578;39;114762;-57
2021/04/10 01:59:14;;;;;;;;;;;;;;;21.09;35.60;101059.19;2216411;39;115016;-58
2021/04/10 02:00:46;;;;;;;;;;;;;;;21.10;35.96;101062.84;2202513;39;115938;-58
2021/04/10 02:02:18;;;;;;;;;;;;;;;21.08;35.50;101053.88;2209174;39;115551;-58
2021/04/10 02:03:49;;;;;;;;;;;;;;;21.09;35.77;101061.16;2210020;39;115722;-57
2021/04/10 02:05:21;;;;;;;;;;;;;;;21.08;35.64;101059.50;2204300;39;115381;-58
2021/04/10 02:06:53;;;;;;;;;;;;;;;21.06;35.88;101056.19;2211781;39;115356;-57
2021/04/10 02:08:25;;;;;;;;;;;;;;;21.04;35.78;101055.66;2195913;39;115475;-57
2021/04/10 02:09:56;;;;;;;;;;;;;;;21.05;35.93;101055.34;2202920;39;115502;-59
2021/04/10 02:11:27;;;;;;;;;;;;;;;21.04;35.95;101058.47;2208224;39;116287;-58
2021/04/10 02:12:59;;;;;;;;;;;;;;;21.03;35.71;101063.25;2206101;39;115846;-57
2021/04/10 02:14:31;;;;;;;;;;;;;;;21.01;35.63;101053.47;2211704;39;116022;-58
2021/04/10 02:16:03;;;;;;;;;;;;;;;21.01;36.02;101054.31;2210966;39;115970;-58
2021/04/10 02:17:34;;;;;;;;;;;;;;;21.00;36.14;101048.97;2200196;39;115536;-57
2021/04/10 02:19:05;;;;;;;;;;;;;;;20.99;35.61;101061.34;2204828;39;114395;-58
2021/04/10 02:20:37;;;;;;;;;;;;;;;20.98;35.71;101059.72;2210322;39;115761;-58
2021/04/10 02:22:08;;;;;;;;;;;;;;;20.98;35.70;101056.91;2203402;39;113891;-58
2021/04/10 02:23:41;;;;;;;;;;;;;;;20.97;35.79;101047.63;2203676;39;113974;-58
2021/04/10 02:25:12;;;;;;;;;;;;;;;20.96;35.79;101056.38;2208214;39;113843;-58
2021/04/10 02:26:43;;;;;;;;;;;;;;;20.94;36.05;101047.44;2202499;39;113897;-58
2021/04/10 02:28:15;;;;;;;;;;;;;;;20.93;36.09;101055.03;2209510;39;114042;-58
2021/04/10 02:29:46;;;;;;;;;;;;;;;20.94;36.02;101056.66;2212488;39;113631;-58
2021/04/10 02:31:21;;;;;;;;;;;;;;;20.94;36.15;101055.84;2211790;39;113667;-57
2021/04/10 02:32:55;;;;;;;;;;;;;;;20.91;36.46;101053.66;2207865;39;114231;-58
2021/04/10 02:34:28;;;;;;;;;;;;;;;20.91;36.36;101054.47;2208390;39;114031;-59
2021/04/10 02:36:00;;;;;;;;;;;;;;;20.91;36.01;101053.66;2201775;39;114002;-59
2021/04/10 02:37:31;;;;;;;;;;;;;;;20.90;36.30;101058.44;2205331;39;113643;-58
2021/04/10 02:39:03;;;;;;;;;;;;;;;20.90;36.34;101051.97;2207124;39;113719;-58
2021/04/10 02:40:36;;;;;;;;;;;;;;;20.89;36.24;101045.56;2211746;39;113718;-57
2021/04/10 02:42:09;;;;;;;;;;;;;;;20.89;36.30;101053.97;2212670;39;114014;-58
2021/04/10 02:43:43;;;;;;;;;;;;;;;20.87;36.56;101047.81;2213065;39;115149;-57
2021/04/10 02:45:16;;;;;;;;;;;;;;;20.89;36.41;101045.56;2199815;39;114751;-58
2021/04/10 02:46:48;;;;;;;;;;;;;;;20.88;36.39;101048.66;2203843;39;114683;-57
2021/04/10 02:48:22;;;;;;;;;;;;;;;20.86;36.34;101049.78;2204932;39;115299;-59
2021/04/10 02:49:55;;;;;;;;;;;;;;;20.87;36.60;101047.81;2205955;39;115628;-58
2021/04/10 02:51:33;;;;;;;;;;;;;;;20.85;36.42;101042.50;2212847;39;115413;-58
2021/04/10 02:53:06;;;;;;;;;;;;;;;20.85;36.37;101047.28;2211350;39;114888;-59
2021/04/10 02:54:42;;;;;;;;;;;;;;;20.84;36.56;101054.06;2210066;39;114674;-58
2021/04/10 02:56:14;;;;;;;;;;;;;;;20.82;36.49;101051.56;2207647;39;114762;-58
2021/04/10 02:57:47;;;;;;;;;;;;;;;20.85;36.43;101050.94;2210259;39;115048;-57
2021/04/10 02:59:20;;;;;;;;;;;;;;;20.82;36.62;101047.91;2210756;39;114758;-58
2021/04/10 03:00:53;;;;;;;;;;;;;;;20.82;36.51;101057.16;2209086;39;114751;-58
2021/04/10 03:02:24;;;;;;;;;;;;;;;20.85;36.67;101044.47;2213550;39;114748;-58
2021/04/10 03:03:56;;;;;;;;;;;;;;;20.82;36.78;101043.13;2212649;39;114916;-59
2021/04/10 03:05:27;;;;;;;;;;;;;;;20.81;36.44;101049.03;2210537;39;115523;-59
2021/04/10 03:06:59;;;;;;;;;;;;;;;20.81;36.71;101041.44;2200897;39;115620;-59
2021/04/10 03:08:31;;;;;;;;;;;;;;;20.79;36.60;101040.94;2208128;39;115519;-57
2021/04/10 03:10:02;;;;;;;;;;;;;;;20.80;36.80;101036.97;2205807;39;115707;-58
2021/04/10 03:11:34;;;;;;;;;;;;;;;20.79;36.79;101042.91;2204006;39;115967;-57
2021/04/10 03:13:05;;;;;;;;;;;;;;;20.78;36.98;101041.25;2207292;39;115567;-59
2021/04/10 03:14:37;;;;;;;;;;;;;;;20.80;36.75;101047.41;2211427;39;115547;-57
2021/04/10 03:16:09;;;;;;;;;;;;;;;20.78;36.58;101044.88;2209229;39;116372;-57
2021/04/10 03:17:40;;;;;;;;;;;;;;;20.78;36.55;101042.06;2204153;39;116380;-58
2021/04/10 03:19:13;;;;;;;;;;;;;;;20.78;36.44;101036.47;2209366;39;116167;-59
2021/04/10 03:20:44;;;;;;;;;;;;;;;20.77;36.58;101040.41;2214764;39;115539;-57
2021/04/10 03:22:16;;;;;;;;;;;;;;;20.77;36.59;101042.38;2213577;39;116584;-57
2021/04/10 03:23:47;;;;;;;;;;;;;;;20.75;37.00;101042.69;2212790;39;114752;-63
2021/04/10 03:25:18;;;;;;;;;;;;;;;20.77;36.54;101039.56;2211962;39;115380;-58
2021/04/10 03:26:50;;;;;;;;;;;;;;;20.78;36.59;101049.66;2218810;39;115463;-60
2021/04/10 03:28:22;;;;;;;;;;;;;;;20.80;36.73;101044.59;2206209;39;113844;-57
2021/04/10 03:29:53;;;;;;;;;;;;;;;20.76;36.63;101049.97;2203238;39;113747;-58
2021/04/10 03:31:28;;;;;;;;;;;;;;;20.75;36.81;101051.13;2209749;39;113773;-56
2021/04/10 03:33:01;;;;;;;;;;;;;;;20.74;36.63;101043.00;2211334;39;113703;-58
2021/04/10 03:34:32;;;;;;;;;;;;;;;20.74;36.49;101038.22;2209130;39;113891;-57
2021/04/10 03:36:04;;;;;;;;;;;;;;;20.74;36.61;101034.56;2208475;39;113885;-58
2021/04/10 03:37:35;;;;;;;;;;;;;;;20.75;37.01;101039.06;2210436;39;113994;-57
2021/04/10 03:39:07;;;;;;;;;;;;;;;20.73;36.82;101030.09;2206593;39;113848;-59
2021/04/10 03:40:38;;;;;;;;;;;;;;;20.71;36.70;101040.81;2206139;39;113812;-57
2021/04/10 03:42:09;;;;;;;;;;;;;;;20.69;36.84;101038.31;2204109;39;114092;-58
2021/04/10 03:43:41;;;;;;;;;;;;;;;20.69;36.92;101041.13;2204887;39;113869;-58
2021/04/10 03:45:14;;;;;;;;;;;;;;;20.68;37.04;101042.25;2211039;39;113598;-58
2021/04/10 03:46:55;;;;;;;;;;;;;;;20.69;36.82;101038.31;2211636;39;113727;-57
2021/04/10 03:48:28;;;;;;;;;;;;;;;20.69;37.04;101040.28;2211880;39;113581;-60
2021/04/10 03:49:59;;;;;;;;;;;;;;;20.68;36.83;101033.00;2211996;39;116835;-59
2021/04/10 03:51:30;;;;;;;;;;;;;;;20.68;36.86;101039.44;2209880;39;115352;-56
2021/04/10 03:53:01;;;;;;;;;;;;;;;20.67;37.37;101036.97;2209399;39;114870;-58
2021/04/10 03:54:32;;;;;;;;;;;;;;;20.66;37.09;101036.13;2213897;39;115249;-56
2021/04/10 03:56:04;;;;;;;;;;;;;;;20.68;37.45;101033.81;2211598;39;115165;-57
2021/04/10 03:57:35;;;;;;;;;;;;;;;20.65;37.43;101028.00;2207804;39;114605;-58
2021/04/10 03:59:06;;;;;;;;;;;;;;;20.65;37.35;101026.03;2208462;39;114732;-60
2021/04/10 04:00:37;;;;;;;;;;;;;;;20.65;37.24;101031.66;2209268;39;114881;-57
2021/04/10 04:02:09;;;;;;;;;;;;;;;20.64;37.51;101041.19;2213946;39;114833;-58
2021/04/10 04:03:40;;;;;;;;;;;;;;;20.64;37.32;101034.75;2214511;39;114567;-57
2021/04/10 04:05:12;;;;;;;;;;;;;;;20.63;37.19;101031.09;2213689;39;114879;-57
2021/04/10 04:06:43;;;;;;;;;;;;;;;20.63;37.33;101027.47;2208713;39;115322;-58
2021/04/10 04:08:14;;;;;;;;;;;;;;;20.63;37.77;101042.34;2209295;39;115011;-58
2021/04/10 04:09:46;;;;;;;;;;;;;;;20.62;37.70;101032.28;2212947;39;114706;-57
2021/04/10 04:11:17;;;;;;;;;;;;;;;20.59;37.84;101038.47;2211272;39;115370;-58
2021/04/10 04:12:48;;;;;;;;;;;;;;;20.58;37.92;101031.19;2205831;39;115496;-57
2021/04/10 04:14:19;;;;;;;;;;;;;;;20.60;38.03;101025.28;2206683;39;114696;-58
2021/04/10 04:15:50;;;;;;;;;;;;;;;20.58;37.98;101028.38;2206760;39;115830;-58
2021/04/10 04:17:22;;;;;;;;;;;;;;;20.55;37.61;101033.78;2207855;39;115585;-59
2021/04/10 04:18:53;;;;;;;;;;;;;;;20.56;37.66;101035.47;2207594;39;115376;-57
2021/04/10 04:20:24;;;;;;;;;;;;;;;20.55;37.82;101036.59;2210486;39;116005;-58
2021/04/10 04:21:55;;;;;;;;;;;;;;;20.52;37.79;101031.59;2211174;39;115960;-59
2021/04/10 04:23:27;;;;;;;;;;;;;;;20.52;37.65;101031.59;2210902;39;115843;-58
2021/04/10 04:24:58;;;;;;;;;;;;;;;20.52;37.69;101029.63;2210418;39;114551;-58
2021/04/10 04:26:29;;;;;;;;;;;;;;;20.53;37.41;101036.09;2206732;39;115505;-58
2021/04/10 04:28:01;;;;;;;;;;;;;;;20.49;37.51;101035.84;2211281;39;115511;-59
2021/04/10 04:29:32;;;;;;;;;;;;;;;20.52;37.68;101043.66;2210624;39;115651;-57
2021/04/10 04:31:03;;;;;;;;;;;;;;;20.50;37.95;101036.66;2215742;39;115716;-58
2021/04/10 04:32:34;;;;;;;;;;;;;;;20.51;37.87;101038.34;2210863;39;113984;-57
2021/04/10 04:34:05;;;;;;;;;;;;;;;20.48;37.93;101039.81;2210223;39;114334;-59
2021/04/10 04:35:36;;;;;;;;;;;;;;;20.46;37.82;101044.88;2204160;39;115196;-58
2021/04/10 04:37:08;;;;;;;;;;;;;;;20.48;37.78;101045.41;2206848;39;114131;-59
2021/04/10 04:38:39;;;;;;;;;;;;;;;20.49;37.55;101047.06;2211093;39;113700;-58
2021/04/10 04:40:11;;;;;;;;;;;;;;;20.47;38.04;101040.09;2211427;39;113830;-59
2021/04/10 04:41:42;;;;;;;;;;;;;;;20.49;37.92;101040.63;2209007;39;113673;-57
2021/04/10 04:43:13;;;;;;;;;;;;;;;20.46;37.93;101042.06;2213768;39;113560;-59
2021/04/10 04:44:44;;;;;;;;;;;;;;;20.47;37.73;101042.91;2210729;39;113855;-58
2021/04/10 04:46:16;;;;;;;;;;;;;;;20.46;37.82;101047.69;2211140;39;113702;-58
2021/04/10 04:47:47;;;;;;;;;;;;;;;20.45;37.80;101047.97;2204077;39;113788;-59
2021/04/10 04:49:18;;;;;;;;;;;;;;;20.45;37.77;101048.81;2210029;39;114403;-59
2021/04/10 04:50:49;;;;;;;;;;;;;;;20.42;37.70;101055.03;2194333;39;113966;-59
2021/04/10 04:52:20;;;;;;;;;;;;;;;20.42;37.71;101055.88;2208235;39;113876;-58
2021/04/10 04:53:55;;;;;;;;;;;;;;;20.43;37.84;101059.53;2213591;39;113724;-57
2021/04/10 04:55:26;;;;;;;;;;;;;;;20.41;37.96;101054.22;2211033;39;114761;-57
2021/04/10 04:56:58;;;;;;;;;;;;;;;20.42;37.67;101053.09;2208691;39;115073;-57
2021/04/10 04:58:29;;;;;;;;;;;;;;;20.42;37.84;101057.84;2209901;39;115234;-58
2021/04/10 05:00:00;;;;;;;;;;;;;;;20.42;37.74;101061.50;2211037;39;114768;-57
2021/04/10 05:01:31;;;;;;;;;;;;;;;20.39;37.99;101061.28;2209006;39;114938;-58
2021/04/10 05:03:03;;;;;;;;;;;;;;;20.41;37.68;101064.59;2209842;39;114958;-58
2021/04/10 05:04:35;;;;;;;;;;;;;;;20.36;38.11;101059.91;2209832;39;114685;-56
2021/04/10 05:06:06;;;;;;;;;;;;;;;20.37;37.56;101072.81;2208309;39;114760;-58
2021/04/10 05:07:37;;;;;;;;;;;;;;;20.34;37.90;101062.19;2210341;39;115005;-57
2021/04/10 05:09:08;;;;;;;;;;;;;;;20.33;38.03;101059.69;2208339;39;114744;-58
2021/04/10 05:10:39;;;;;;;;;;;;;;;20.33;38.00;101066.13;2203448;39;114476;-56
2021/04/10 05:12:11;;;;;;;;;;;;;;;20.34;38.07;101064.16;2207886;39;114829;-57
2021/04/10 05:13:42;;;;;;;;;;;;;;;20.34;37.64;101067.81;2203980;39;114697;-57
2021/04/10 05:15:14;;;;;;;;;;;;;;;20.33;38.05;101065.28;2213386;39;114828;-59
2021/04/10 05:16:45;;;;;;;;;;;;;;;20.32;38.26;101070.06;2211571;39;115504;-58
2021/04/10 05:18:16;;;;;;;;;;;;;;;20.33;37.82;101076.53;2205758;39;115580;-58
2021/04/10 05:19:47;;;;;;;;;;;;;;;20.33;37.89;101071.75;2217122;39;115539;-59
2021/04/10 05:21:18;;;;;;;;;;;;;;;20.31;37.89;101074.00;2209819;39;114587;-60
2021/04/10 05:22:53;;;;;;;;;;;;;;;20.30;37.76;101079.94;2207047;39;116408;-58
2021/04/10 05:24:25;;;;;;;;;;;;;;;20.29;37.59;101075.44;2199922;39;115560;-59
2021/04/10 05:25:56;;;;;;;;;;;;;;;20.32;37.74;101075.69;2206414;39;115703;-59
2021/04/10 05:27:27;;;;;;;;;;;;;;;20.30;37.69;101071.53;2211779;39;115534;-57
2021/04/10 05:28:58;;;;;;;;;;;;;;;20.31;37.59;101076.81;2206562;39;115336;-57
2021/04/10 05:30:30;;;;;;;;;;;;;;;20.30;37.76;101074.34;2209319;39;115641;-58
2021/04/10 05:32:02;;;;;;;;;;;;;;;20.29;37.78;101075.44;2210674;39;114442;-58
2021/04/10 05:33:36;;;;;;;;;;;;;;;20.27;37.74;101072.91;2211526;39;115837;-57
2021/04/10 05:35:07;;;;;;;;;;;;;;;20.26;37.82;101074.06;2211857;39;115541;-59
2021/04/10 05:36:39;;;;;;;;;;;;;;;20.29;37.69;101070.66;2213184;39;115652;-58
2021/04/10 05:38:10;;;;;;;;;;;;;;;20.27;37.98;101077.69;2202805;39;114100;-58
2021/04/10 05:39:41;;;;;;;;;;;;;;;20.28;37.93;101084.97;2209403;39;114100;-57
2021/04/10 05:41:13;;;;;;;;;;;;;;;20.28;38.18;101079.38;2211540;39;113772;-58
2021/04/10 05:42:45;;;;;;;;;;;;;;;20.26;38.02;101085.28;2206076;39;113800;-59
2021/04/10 05:44:16;;;;;;;;;;;;;;;20.23;38.10;101080.28;2206230;39;113808;-59
2021/04/10 05:45:47;;;;;;;;;;;;;;;20.23;37.88;101080.28;2203806;39;113624;-57
2021/04/10 05:47:19;;;;;;;;;;;;;;;20.21;37.89;101081.72;2191043;39;114166;-58
2021/04/10 05:48:50;;;;;;;;;;;;;;;20.21;37.95;101082.56;2206694;39;113827;-58
2021/04/10 05:50:21;;;;;;;;;;;;;;;20.21;37.88;101085.38;2211145;39;113985;-58
2021/04/10 05:51:52;;;;;;;;;;;;;;;20.18;37.92;101085.13;2212361;39;113883;-57
2021/04/10 05:53:26;;;;;;;;;;;;;;;20.21;37.79;101087.34;2210085;39;113745;-58
2021/04/10 05:54:58;;;;;;;;;;;;;;;20.18;37.86;101085.13;2211383;39;113993;-58
2021/04/10 05:56:29;;;;;;;;;;;;;;;20.20;37.92;101088.47;2211726;39;113940;-58
2021/04/10 05:58:00;;;;;;;;;;;;;;;20.19;37.63;101096.06;2208420;39;114247;-59
2021/04/10 05:59:31;;;;;;;;;;;;;;;20.17;37.75;101091.88;2214893;39;114967;-58
2021/04/10 06:01:02;;;;;;;;;;;;;;;20.18;37.84;101093.53;2202668;39;114780;-58
2021/04/10 06:02:34;;;;;;;;;;;;;;;20.16;37.88;101093.84;2202066;39;114914;-58
2021/04/10 06:04:05;;;;;;;;;;;;;;;20.15;38.01;101091.34;2208020;39;114977;-58
2021/04/10 06:05:36;;;;;;;;;;;;;;;20.16;37.89;101095.81;2212318;39;114798;-59
2021/04/10 06:07:08;;;;;;;;;;;;;;;20.14;37.79;101095.28;2211961;39;114810;-57
2021/04/10 06:08:39;;;;;;;;;;;;;;;20.16;37.69;101104.25;2210232;39;114755;-58
2021/04/10 06:10:10;;;;;;;;;;;;;;;20.15;37.81;101099.75;2203922;39;114415;-59
2021/04/10 06:11:41;;;;;;;;;;;;;;;20.15;37.98;101105.38;2208188;39;115004;-57
2021/04/10 06:13:14;;;;;;;;;;;;;;;20.15;37.80;101103.41;2205488;39;114573;-57
2021/04/10 06:14:46;;;;;;;;;;;;;;;20.13;37.97;101099.22;2203263;39;114852;-57
2021/04/10 06:16:17;;;;;;;;;;;;;;;20.13;37.65;101104.81;2209952;39;115057;-57
2021/04/10 06:17:48;;;;;;;;;;;;;;;20.12;37.97;101106.00;2211454;39;114720;-58
2021/04/10 06:19:20;;;;;;;;;;;;;;;20.13;37.85;101102.03;2209478;39;114672;-57
2021/04/10 06:20:51;;;;;;;;;;;;;;;20.10;37.88;101106.28;2212860;39;115769;-58
2021/04/10 06:22:22;;;;;;;;;;;;;;;20.12;37.98;101109.63;2217070;39;115385;-57
2021/04/10 06:23:53;;;;;;;;;;;;;;;20.13;38.08;101104.81;2212424;39;115540;-58
2021/04/10 06:25:24;;;;;;;;;;;;;;;20.17;38.00;101100.31;2204500;39;115499;-59
2021/04/10 06:26:56;;;;;;;;;;;;;;;20.21;38.38;101106.97;2205157;39;114862;-58
2021/04/10 06:28:27;;;;;;;;;;;;;;;20.23;38.28;101107.50;2205105;39;115529;-57
2021/04/10 06:29:58;;;;;;;;;;;;;;;20.22;38.54;101105.81;2205130;39;115519;-57
2021/04/10 06:31:29;;;;;;;;;;;;;;;20.23;38.34;101110.31;2213768;39;114869;-58
2021/04/10 06:33:00;;;;;;;;;;;;;;;20.25;38.31;101099.63;2207590;39;116066;-58
2021/04/10 06:34:31;;;;;;;;;;;;;;;20.26;38.67;101104.91;2206354;39;115678;-57
2021/04/10 06:36:03;;;;;;;;;;;;;;;20.29;38.58;101107.13;2206331;39;115669;-57
2021/04/10 06:37:35;;;;;;;;;;;;;;;20.32;38.71;101106.53;2209769;39;115582;-58
2021/04/10 06:39:07;;;;;;;;;;;;;;;20.34;38.49;101098.69;2204265;39;115638;-58
2021/04/10 06:40:38;;;;;;;;;;;;;;;20.38;38.65;101098.91;2212692;39;115491;-59
2021/04/10 06:42:10;;;;;;;;;;;;;;;20.41;38.85;101109.50;2210607;39;115698;-57
2021/04/10 06:43:42;;;;;;;;;;;;;;;20.45;38.90;101104.94;2204359;39;113725;-57
2021/04/10 06:45:13;;;;;;;;;;;;;;;20.50;38.83;101104.03;2201807;39;113740;-57
2021/04/10 06:46:46;;;;;;;;;;;;;;;20.53;38.60;101101.47;2209695;39;113967;-57
2021/04/10 06:48:22;;;;;;;;;;;;;;;20.57;38.67;101102.53;2211442;39;113686;-58
2021/04/10 06:49:53;;;;;;;;;;;;;;;20.62;38.51;101102.47;2210721;39;113796;-58
2021/04/10 06:51:24;;;;;;;;;;;;;;;20.66;38.72;101105.47;2210885;39;114142;-58
2021/04/10 06:52:56;;;;;;;;;;;;;;;20.70;38.57;101107.38;2211545;39;113625;-58
2021/04/10 06:54:30;;;;;;;;;;;;;;;20.74;38.62;101101.97;2211220;39;113667;-57
2021/04/10 06:56:03;;;;;;;;;;;;;;;20.79;38.81;101102.72;2205257;39;113713;-58
2021/04/10 06:57:38;;;;;;;;;;;;;;;20.84;38.59;101099.00;2211868;39;113575;-57
2021/04/10 06:59:11;;;;;;;;;;;;;;;20.88;38.30;101100.03;2210461;39;114079;-58
2021/04/10 07:00:43;;;;;;;;;;;;;;;20.94;37.87;101106.41;2210944;39;113768;-58
2021/04/10 07:02:15;;;;;;;;;;;;;;;20.98;38.25;101102.69;2210682;39;113754;-60
2021/04/10 07:03:49;;;;;;;;;;;;;;;21.02;37.90;101094.47;2207814;39;114010;-60
2021/04/10 07:05:20;;;;;;;;;;;;;;;21.06;37.85;101101.97;2207180;39;114905;-59
2021/04/10 07:06:51;;;;;;;;;;;;;;;21.12;37.85;101102.72;2211741;39;114661;-59
2021/04/10 07:08:23;;;;;;;;;;;;;;;21.15;37.95;101105.78;2211798;39;114769;-59
2021/04/10 07:09:54;;;;;;;;;;;;;;;21.20;37.48;101104.84;2204331;39;114909;-59
2021/04/10 07:11:25;;;;;;;;;;;;;;;21.25;37.82;101107.56;2208579;39;114778;-58
2021/04/10 07:12:57;;;;;;;;;;;;;;;21.28;37.54;101104.97;2205406;39;114846;-58
2021/04/10 07:14:28;;;;;;;;;;;;;;;21.33;37.35;101097.56;2211539;39;115406;-58
2021/04/10 07:16:00;;;;;;;;;;;;;;;21.37;37.64;101102.25;2210623;39;114936;-59
2021/04/10 07:17:31;;;;;;;;;;;;;;;21.41;37.51;101103.31;2211200;39;114895;-57
2021/04/10 07:19:11;;;;;;;;;;;;;;;21.44;37.04;101093.44;2208256;39;114905;-57
2021/04/10 07:20:42;;;;;;;;;;;;;;;21.48;37.39;101100.94;2205651;39;115091;-59
2021/04/10 07:22:14;;;;;;;;;;;;;;;21.50;37.45;101095.81;2206361;39;114858;-59
2021/04/10 07:23:47;;;;;;;;;;;;;;;21.54;37.28;101102.47;2206302;39;114856;-58
2021/04/10 07:25:22;;;;;;;;;;;;;;;21.59;37.19;101105.19;2214668;39;114765;-58
2021/04/10 07:26:56;;;;;;;;;;;;;;;21.63;37.29;101097.78;2205166;39;115602;-57
2021/04/10 07:28:28;;;;;;;;;;;;;;;21.66;37.25;101097.19;2210180;39;115841;-57
2021/04/10 07:29:59;;;;;;;;;;;;;;;21.71;37.00;101099.06;2211614;39;115535;-56
2021/04/10 07:31:32;;;;;;;;;;;;;;;21.73;37.00;101094.78;2204543;39;115874;-58
2021/04/10 07:33:03;;;;;;;;;;;;;;;21.77;36.63;101109.03;2209628;39;115536;-58
2021/04/10 07:34:43;;;;;;;;;;;;;;;21.81;36.62;101098.00;2211771;39;115281;-58
2021/04/10 07:36:21;;;;;;;;;;;;;;;21.84;36.54;101101.03;2204553;39;115601;-58
2021/04/10 07:37:52;;;;;;;;;;;;;;;21.88;36.78;101104.06;2208971;39;116353;-57
2021/04/10 07:39:24;;;;;;;;;;;;;;;21.91;36.41;101106.22;2212366;39;116072;-58
2021/04/10 07:40:55;;;;;;;;;;;;;;;21.95;36.33;101112.91;2209996;39;115632;-61
2021/04/10 07:42:27;;;;;;;;;;;;;;;21.98;36.34;101107.53;2210508;39;115474;-57
2021/04/10 07:43:58;;;;;;;;;;;;;;;22.01;36.69;101108.84;2206116;39;115511;-58
2021/04/10 07:45:32;;;;;;;;;;;;;;;22.03;36.37;101107.38;2216208;39;114727;-58
2021/04/10 07:47:05;;;;;;;;;;;;;;;22.06;36.28;101101.16;2212093;39;114715;-58